createdAt,value
2017-06-14T00:02:06.514Z,0
2017-06-14T00:05:58.227Z,0
2017-06-14T00:08:22.342Z,0
2017-06-14T00:10:46.424Z,0
2017-06-14T00:13:10.494Z,0
2017-06-14T00:15:34.581Z,0
2017-06-14T00:17:58.674Z,0
2017-06-14T00:22:15.690Z,0
2017-06-14T00:24:31.353Z,0
2017-06-14T00:26:55.364Z,0
2017-06-14T00:29:19.439Z,0
2017-06-14T00:31:43.512Z,0
2017-06-14T00:34:07.610Z,0
2017-06-14T00:36:23.257Z,0
2017-06-14T00:38:47.390Z,0
2017-06-14T00:41:11.357Z,0
2017-06-14T00:43:35.432Z,0
2017-06-14T00:45:51.021Z,0
2017-06-14T00:48:15.096Z,0
2017-06-14T00:50:39.173Z,0
2017-06-14T00:53:03.151Z,0
2017-06-14T00:55:27.228Z,0
2017-06-14T00:57:51.332Z,0
2017-06-14T01:00:06.971Z,0
2017-06-14T01:02:30.989Z,0
2017-06-14T01:06:47.925Z,0
2017-06-14T01:09:03.555Z,0
2017-06-14T01:11:27.556Z,0
2017-06-14T01:13:51.546Z,0
2017-06-14T01:16:15.520Z,0
2017-06-14T01:18:39.501Z,0
2017-06-14T01:20:55.065Z,0
2017-06-14T01:23:19.070Z,0
2017-06-14T01:25:43.041Z,0
2017-06-14T01:28:07.022Z,0
2017-06-14T01:30:31.005Z,0
2017-06-14T01:32:46.596Z,0
2017-06-14T01:35:10.567Z,0
2017-06-14T01:37:34.544Z,0
2017-06-14T01:39:50.114Z,0
2017-06-14T01:44:15.962Z,0
2017-06-14T01:46:39.955Z,0
2017-06-14T01:49:03.920Z,0
2017-06-14T01:51:19.470Z,0
2017-06-14T01:53:43.488Z,0
2017-06-14T01:55:59.035Z,0
2017-06-14T01:58:22.945Z,0
2017-06-14T02:00:46.923Z,0
2017-06-14T02:03:02.491Z,0
2017-06-14T02:05:26.517Z,0
2017-06-14T02:09:43.401Z,0
2017-06-14T02:11:58.967Z,0
2017-06-14T02:14:22.973Z,0
2017-06-14T02:16:38.535Z,0
2017-06-14T02:18:54.016Z,0
2017-06-14T02:21:18.011Z,0
2017-06-14T02:23:41.886Z,0
2017-06-14T02:26:05.866Z,0
2017-06-14T02:28:29.843Z,0
2017-06-14T02:30:53.825Z,0
2017-06-14T02:33:09.381Z,0
2017-06-14T02:35:33.282Z,0
2017-06-14T02:37:57.259Z,0
2017-06-14T02:40:21.253Z,0
2017-06-14T02:44:47.062Z,0
2017-06-14T02:47:11.064Z,0
2017-06-14T02:49:35.039Z,0
2017-06-14T02:51:59.023Z,0
2017-06-14T02:54:22.994Z,0
2017-06-14T02:56:46.972Z,0
2017-06-14T02:59:10.853Z,0
2017-06-14T03:01:34.728Z,0
2017-06-14T03:05:59.922Z,0
2017-06-14T03:08:23.833Z,0
2017-06-14T03:10:47.708Z,0
2017-06-14T03:13:11.578Z,0
2017-06-14T03:15:35.449Z,0
2017-06-14T03:17:59.328Z,0
2017-06-14T03:20:23.234Z,0
2017-06-14T03:22:30.265Z,0
2017-06-14T03:24:54.160Z,0
2017-06-14T03:27:18.031Z,5
2017-06-14T03:29:41.918Z,5
2017-06-14T03:31:48.958Z,5
2017-06-14T03:34:12.880Z,5
2017-06-14T03:36:36.763Z,5
2017-06-14T03:38:43.787Z,10
2017-06-14T03:41:07.728Z,10
2017-06-14T03:43:23.179Z,10
2017-06-14T03:45:47.080Z,15
2017-06-14T03:48:02.544Z,15
2017-06-14T03:50:26.447Z,15
2017-06-14T03:54:43.280Z,20
2017-06-14T03:57:07.274Z,30
2017-06-14T03:59:31.245Z,25
2017-06-14T04:01:55.223Z,25
2017-06-14T04:04:19.210Z,30
2017-06-14T04:06:43.191Z,35
2017-06-14T04:09:07.174Z,30
2017-06-14T04:11:31.168Z,45
2017-06-14T04:13:55.253Z,40
2017-06-14T04:16:10.823Z,40
2017-06-14T04:18:34.908Z,45
2017-06-14T04:23:09.388Z,70
2017-06-14T04:25:25.148Z,75
2017-06-14T04:27:49.391Z,90
2017-06-14T04:30:13.710Z,85
2017-06-14T04:32:38.135Z,90
2017-06-14T04:35:02.656Z,85
2017-06-14T04:37:27.281Z,105
2017-06-14T04:39:51.996Z,105
2017-06-14T04:41:59.863Z,95
2017-06-14T04:44:16.249Z,95
2017-06-14T04:46:32.675Z,115
2017-06-14T04:48:57.675Z,100
2017-06-14T04:51:22.694Z,90
2017-06-14T04:53:30.816Z,95
2017-06-14T04:55:55.918Z,100
2017-06-14T04:58:04.033Z,90
2017-06-14T05:00:20.643Z,90
2017-06-14T05:02:45.723Z,95
2017-06-14T05:05:10.836Z,125
2017-06-14T05:07:35.937Z,120
2017-06-14T05:10:01.153Z,140
2017-06-14T05:12:26.184Z,160
2017-06-14T05:14:42.897Z,160
2017-06-14T05:17:08.110Z,175
2017-06-14T05:19:33.336Z,155
2017-06-14T05:21:50.043Z,195
2017-06-14T05:25:51.189Z,220
2017-06-14T05:28:16.623Z,220
2017-06-14T05:30:41.989Z,210
2017-06-14T05:32:58.919Z,265
2017-06-14T05:35:24.457Z,270
2017-06-14T05:37:50.090Z,260
2017-06-14T05:40:07.309Z,260
2017-06-14T05:42:33.073Z,320
2017-06-14T05:44:58.947Z,325
2017-06-14T05:47:24.875Z,340
2017-06-14T05:49:42.299Z,360
2017-06-14T05:52:08.366Z,405
2017-06-14T05:54:34.385Z,555
2017-06-14T05:57:00.425Z,1240
2017-06-14T05:59:26.435Z,1060
2017-06-14T06:01:52.574Z,1075
2017-06-14T06:04:18.724Z,980
2017-06-14T06:06:44.861Z,945
2017-06-14T06:09:10.983Z,925
2017-06-14T06:11:37.100Z,560
2017-06-14T06:14:03.228Z,710
2017-06-14T06:16:29.224Z,640
2017-06-14T06:18:55.128Z,695
2017-06-14T06:21:21.058Z,745
2017-06-14T06:28:07.933Z,750
2017-06-14T06:30:33.693Z,505
2017-06-14T06:32:50.967Z,375
2017-06-14T06:35:16.753Z,400
2017-06-14T06:37:34.037Z,400
2017-06-14T06:39:59.919Z,395
2017-06-14T06:42:25.843Z,385
2017-06-14T06:44:51.762Z,375
2017-06-14T06:47:09.142Z,370
2017-06-14T06:49:26.451Z,395
2017-06-14T06:51:43.770Z,460
2017-06-14T06:53:52.450Z,430
2017-06-14T06:56:18.131Z,455
2017-06-14T06:58:43.839Z,505
2017-06-14T07:01:00.941Z,515
2017-06-14T07:03:26.673Z,510
2017-06-14T07:05:52.375Z,460
2017-06-14T07:08:09.471Z,445
2017-06-14T07:10:26.578Z,405
2017-06-14T07:12:53.122Z,410
2017-06-14T07:15:18.621Z,410
2017-06-14T07:17:44.042Z,425
2017-06-14T07:20:09.539Z,585
2017-06-14T07:22:26.440Z,600
2017-06-14T07:24:43.391Z,595
2017-06-14T07:27:08.783Z,595
2017-06-14T07:29:34.185Z,695
2017-06-14T07:31:51.102Z,710
2017-06-14T07:34:16.637Z,710
2017-06-14T07:36:42.160Z,645
2017-06-14T07:39:07.677Z,655
2017-06-14T07:41:33.178Z,715
2017-06-14T07:43:59.744Z,720
2017-06-14T07:46:25.353Z,635
2017-06-14T07:48:50.847Z,595
2017-06-14T07:51:16.387Z,465
2017-06-14T07:53:41.901Z,485
2017-06-14T07:58:09.808Z,490
2017-06-14T08:02:37.925Z,430
2017-06-14T08:07:06.019Z,425
2017-06-14T08:09:31.761Z,415
2017-06-14T08:13:59.800Z,380
2017-06-14T08:16:18.042Z,405
2017-06-14T08:18:43.797Z,400
2017-06-14T08:21:09.515Z,400
2017-06-14T08:23:36.271Z,385
2017-06-14T08:26:01.998Z,400
2017-06-14T08:28:28.740Z,385
2017-06-14T08:30:55.490Z,370
2017-06-14T08:33:23.231Z,365
2017-06-14T08:35:48.946Z,385
2017-06-14T08:38:14.658Z,380
2017-06-14T08:40:40.435Z,375
2017-06-14T08:43:07.186Z,365
2017-06-14T08:45:32.902Z,380
2017-06-14T08:47:58.593Z,385
2017-06-14T08:50:24.318Z,380
2017-06-14T08:52:50.057Z,370
2017-06-14T08:55:15.780Z,365
2017-06-14T08:57:32.959Z,380
2017-06-14T08:59:50.202Z,370
2017-06-14T09:02:15.934Z,385
2017-06-14T09:04:41.652Z,370
2017-06-14T09:06:58.830Z,350
2017-06-14T09:09:24.596Z,370
2017-06-14T09:11:50.318Z,340
2017-06-14T09:14:16.022Z,340
2017-06-14T09:16:41.736Z,315
2017-06-14T09:19:07.448Z,340
2017-06-14T09:21:33.064Z,330
2017-06-14T09:23:50.140Z,315
2017-06-14T09:26:15.690Z,310
2017-06-14T09:28:41.294Z,305
2017-06-14T09:31:06.907Z,275
2017-06-14T09:33:32.429Z,290
2017-06-14T09:35:57.923Z,280
2017-06-14T09:38:23.440Z,255
2017-06-14T09:40:40.446Z,260
2017-06-14T09:43:05.952Z,255
2017-06-14T09:45:22.958Z,250
2017-06-14T09:47:39.830Z,250
2017-06-14T09:50:05.294Z,255
2017-06-14T09:52:22.223Z,240
2017-06-14T09:54:47.719Z,245
2017-06-14T09:59:06.371Z,245
2017-06-14T10:01:31.826Z,240
2017-06-14T10:03:57.330Z,235
2017-06-14T10:06:22.845Z,225
2017-06-14T10:08:48.230Z,205
2017-06-14T10:11:13.647Z,205
2017-06-14T10:13:38.944Z,180
2017-06-14T10:18:06.562Z,185
2017-06-14T10:20:31.917Z,185
2017-06-14T10:22:57.231Z,175
2017-06-14T10:25:05.407Z,180
2017-06-14T10:27:22.149Z,165
2017-06-14T10:29:47.285Z,170
2017-06-14T10:32:12.431Z,170
2017-06-14T10:34:37.647Z,170
2017-06-14T10:37:02.853Z,165
2017-06-14T10:39:19.475Z,170
2017-06-14T10:41:36.165Z,170
2017-06-14T10:44:01.355Z,160
2017-06-14T10:46:26.466Z,165
2017-06-14T10:48:51.559Z,160
2017-06-14T10:51:16.594Z,155
2017-06-14T10:53:41.655Z,150
2017-06-14T10:57:34.580Z,150
2017-06-14T10:59:51.127Z,145
2017-06-14T11:02:16.123Z,145
2017-06-14T11:04:41.124Z,145
2017-06-14T11:07:06.141Z,145
2017-06-14T11:09:31.128Z,140
2017-06-14T11:11:56.130Z,135
2017-06-14T11:14:21.124Z,135
2017-06-14T11:16:46.040Z,135
2017-06-14T11:19:11.046Z,130
2017-06-14T11:21:36.049Z,125
2017-06-14T11:24:01.041Z,125
2017-06-14T11:26:17.454Z,125
2017-06-14T11:28:33.940Z,120
2017-06-14T11:30:58.841Z,120
2017-06-14T11:33:23.734Z,115
2017-06-14T11:35:48.644Z,115
2017-06-14T11:38:13.643Z,115
2017-06-14T11:40:38.541Z,110
2017-06-14T11:45:05.034Z,110
2017-06-14T11:47:30.007Z,105
2017-06-14T11:49:46.547Z,105
2017-06-14T11:52:11.509Z,105
2017-06-14T11:54:36.399Z,100
2017-06-14T11:57:01.323Z,100
2017-06-14T11:59:26.225Z,100
2017-06-14T12:01:51.110Z,100
2017-06-14T12:04:07.534Z,100
2017-06-14T12:06:32.512Z,100
2017-06-14T12:08:57.422Z,95
2017-06-14T12:11:22.324Z,95
2017-06-14T12:13:47.214Z,95
2017-06-14T12:16:12.120Z,95
2017-06-14T12:18:28.541Z,95
2017-06-14T12:22:55.550Z,90
2017-06-14T12:25:20.512Z,90
2017-06-14T12:27:45.510Z,90
2017-06-14T12:30:10.511Z,90
2017-06-14T12:32:35.404Z,90
2017-06-14T12:35:00.309Z,85
2017-06-14T12:37:16.718Z,85
2017-06-14T12:39:24.648Z,85
2017-06-14T12:41:49.504Z,90
2017-06-14T12:44:06.044Z,90
2017-06-14T12:46:30.804Z,85
2017-06-14T12:48:48.252Z,85
2017-06-14T12:51:13.148Z,85
2017-06-14T12:53:38.051Z,85
2017-06-14T12:56:03.059Z,85
2017-06-14T12:58:28.083Z,85
2017-06-14T13:00:52.964Z,85
2017-06-14T13:03:09.407Z,80
2017-06-14T13:05:25.825Z,80
2017-06-14T13:07:50.736Z,80
2017-06-14T13:10:15.626Z,80
2017-06-14T13:14:51.178Z,80
2017-06-14T13:17:07.607Z,80
2017-06-14T13:19:32.511Z,80
2017-06-14T13:21:48.905Z,80
2017-06-14T13:24:13.745Z,80
2017-06-14T13:26:38.566Z,80
2017-06-14T13:29:03.450Z,80
2017-06-14T13:31:28.296Z,80
2017-06-14T13:33:53.154Z,80
2017-06-14T13:36:17.985Z,80
2017-06-14T13:38:42.846Z,80
2017-06-14T13:40:59.187Z,80
2017-06-14T13:43:24.040Z,80
2017-06-14T13:45:48.882Z,75
2017-06-14T13:48:13.717Z,75
2017-06-14T13:50:38.555Z,75
2017-06-14T13:53:03.412Z,75
2017-06-14T13:55:28.292Z,75
2017-06-14T13:57:53.120Z,75
2017-06-14T14:00:17.951Z,75
2017-06-14T14:02:42.818Z,75
2017-06-14T14:05:07.631Z,75
2017-06-14T14:07:33.341Z,75
2017-06-14T14:09:49.711Z,75
2017-06-14T14:12:14.570Z,75
2017-06-14T14:14:39.425Z,75
2017-06-14T14:17:04.276Z,75
2017-06-14T14:19:20.667Z,75
2017-06-14T14:21:45.552Z,75
2017-06-14T14:26:03.987Z,75
2017-06-14T14:28:28.868Z,75
2017-06-14T14:30:45.244Z,75
2017-06-14T14:33:10.092Z,70
2017-06-14T14:37:45.619Z,70
2017-06-14T14:40:10.506Z,70
2017-06-14T14:42:35.360Z,70
2017-06-14T14:45:00.189Z,70
2017-06-14T14:47:24.992Z,70
2017-06-14T14:49:49.890Z,70
2017-06-14T14:52:06.285Z,70
2017-06-14T14:54:31.177Z,70
2017-06-14T14:56:56.034Z,70
2017-06-14T14:59:20.901Z,70
2017-06-14T15:01:45.766Z,70
2017-06-14T15:04:10.641Z,70
2017-06-14T15:06:35.518Z,70
2017-06-14T15:09:00.369Z,70
2017-06-14T15:11:25.223Z,70
2017-06-14T15:13:50.100Z,70
2017-06-14T15:16:15.000Z,70
2017-06-14T15:18:39.874Z,70
2017-06-14T15:20:56.277Z,70
2017-06-14T15:23:21.144Z,70
2017-06-14T15:25:46.028Z,70
2017-06-14T15:28:10.900Z,65
2017-06-14T15:30:27.281Z,65
2017-06-14T15:32:52.158Z,65
2017-06-14T15:35:17.040Z,65
2017-06-14T15:37:41.886Z,65
2017-06-14T15:40:06.744Z,65
2017-06-14T15:42:31.600Z,65
2017-06-14T15:44:56.524Z,65
2017-06-14T15:47:21.415Z,65
2017-06-14T15:49:46.299Z,65
2017-06-14T15:52:11.196Z,65
2017-06-14T15:54:36.119Z,65
2017-06-14T15:57:01.046Z,65
2017-06-14T15:59:25.886Z,65
2017-06-14T16:03:52.961Z,65
2017-06-14T16:06:17.894Z,65
2017-06-14T16:08:43.455Z,65
2017-06-14T16:10:59.805Z,65
2017-06-14T16:15:17.902Z,65
2017-06-14T16:17:42.883Z,60
2017-06-14T16:20:07.747Z,60
2017-06-14T16:22:32.670Z,60
2017-06-14T16:24:58.058Z,60
2017-06-14T16:29:32.422Z,60
2017-06-14T16:31:58.669Z,60
2017-06-14T16:34:23.458Z,60
2017-06-14T16:36:49.254Z,60
2017-06-14T16:39:14.054Z,60
2017-06-14T16:41:39.000Z,60
2017-06-14T16:44:03.747Z,60
2017-06-14T16:46:28.570Z,60
2017-06-14T16:48:53.933Z,60
2017-06-14T16:51:18.360Z,60
2017-06-14T16:53:34.791Z,60
2017-06-14T16:55:42.637Z,55
2017-06-14T16:57:58.931Z,55
2017-06-14T17:00:23.883Z,55
2017-06-14T17:02:40.273Z,55
2017-06-14T17:05:05.151Z,55
2017-06-14T17:07:29.973Z,55
2017-06-14T17:09:54.742Z,55
2017-06-14T17:14:11.285Z,55
2017-06-14T17:16:38.922Z,55
2017-06-14T17:19:03.887Z,55
2017-06-14T17:21:28.765Z,50
2017-06-14T17:23:54.669Z,50
2017-06-14T17:26:19.658Z,50
2017-06-14T17:28:44.534Z,50
2017-06-14T17:31:00.959Z,50
2017-06-14T17:33:26.004Z,50
2017-06-14T17:35:50.744Z,50
2017-06-14T17:38:15.542Z,45
2017-06-14T17:40:40.372Z,45
2017-06-14T17:43:05.162Z,45
2017-06-14T17:45:29.959Z,45
2017-06-14T17:47:55.808Z,45
2017-06-14T17:50:20.589Z,45
2017-06-14T17:52:45.371Z,40
2017-06-14T17:55:10.217Z,40
2017-06-14T17:57:36.009Z,40
2017-06-14T18:00:00.776Z,40
2017-06-14T18:02:26.652Z,40
2017-06-14T18:04:51.470Z,35
2017-06-14T18:07:17.146Z,35
2017-06-14T18:09:43.869Z,35
2017-06-14T18:12:08.813Z,35
2017-06-14T18:14:34.609Z,35
2017-06-14T18:17:01.381Z,30
2017-06-14T18:19:27.063Z,30
2017-06-14T18:21:51.753Z,30
2017-06-14T18:24:16.578Z,30
2017-06-14T18:26:48.128Z,25
2017-06-14T18:30:55.460Z,25
2017-06-14T18:33:21.144Z,25
2017-06-14T18:35:46.870Z,25
2017-06-14T18:40:22.174Z,20
2017-06-14T18:42:46.817Z,20
2017-06-14T18:45:11.528Z,20
2017-06-14T18:47:36.184Z,15
2017-06-14T18:50:02.873Z,15
2017-06-14T18:52:27.552Z,15
2017-06-14T18:54:52.121Z,15
2017-06-14T18:57:16.834Z,15
2017-06-14T18:59:41.529Z,10
2017-06-14T19:02:06.260Z,10
2017-06-14T19:04:30.819Z,10
2017-06-14T19:06:46.957Z,10
2017-06-14T19:08:54.622Z,5
2017-06-14T19:11:19.271Z,5
2017-06-14T19:13:43.885Z,5
2017-06-14T19:16:08.480Z,5
2017-06-14T19:18:33.169Z,5
2017-06-14T19:20:57.766Z,5
2017-06-14T19:23:22.371Z,0
2017-06-14T19:25:47.067Z,0
2017-06-14T19:28:11.786Z,0
2017-06-14T19:32:46.544Z,0
2017-06-14T19:35:11.146Z,0
2017-06-14T19:39:28.753Z,0
2017-06-14T19:41:44.972Z,0
2017-06-14T19:44:09.635Z,0
2017-06-14T19:46:34.219Z,0
2017-06-14T19:48:58.838Z,0
2017-06-14T19:51:06.544Z,0
2017-06-14T19:55:16.421Z,0
2017-06-14T19:57:40.970Z,0
2017-06-14T20:00:05.581Z,0
2017-06-14T20:04:32.166Z,0
2017-06-14T20:06:56.705Z,0
2017-06-14T20:09:21.317Z,0
2017-06-14T20:11:37.387Z,0
2017-06-14T20:13:53.453Z,0
2017-06-14T20:16:17.981Z,0
2017-06-14T20:18:42.457Z,0
2017-06-14T20:21:06.977Z,0
2017-06-14T20:23:31.564Z,0
2017-06-14T20:25:56.157Z,0
2017-06-14T20:28:12.261Z,0
2017-06-14T20:30:36.833Z,0
2017-06-14T20:33:01.426Z,0
2017-06-14T20:35:25.919Z,0
2017-06-14T20:37:50.434Z,0
2017-06-14T20:40:06.444Z,0
2017-06-14T20:42:30.991Z,0
2017-06-14T20:44:47.033Z,0
2017-06-14T20:47:11.572Z,0
2017-06-14T20:51:13.235Z,0
2017-06-14T20:55:39.593Z,0
2017-06-14T20:58:04.092Z,0
2017-06-14T21:00:28.599Z,0
2017-06-14T21:02:53.097Z,0
2017-06-14T21:05:17.563Z,0
2017-06-14T21:07:41.975Z,0
2017-06-14T21:10:06.458Z,0
2017-06-14T21:12:30.956Z,0
2017-06-14T21:14:55.436Z,0
2017-06-14T21:17:19.944Z,0
2017-06-14T21:19:44.439Z,0
2017-06-14T21:22:00.342Z,0
2017-06-14T21:24:24.777Z,0
2017-06-14T21:26:40.770Z,0
2017-06-14T21:29:05.173Z,0
2017-06-14T21:31:29.557Z,0
2017-06-14T21:33:53.937Z,0
2017-06-14T21:36:18.330Z,0
2017-06-14T21:38:42.742Z,0
2017-06-14T21:41:07.132Z,0
2017-06-14T21:43:23.143Z,0
2017-06-14T21:45:47.608Z,0
2017-06-14T21:48:11.999Z,0
2017-06-14T21:50:36.375Z,0
2017-06-14T21:53:00.770Z,0
2017-06-14T21:55:25.173Z,0
2017-06-14T21:57:49.548Z,0
2017-06-14T22:00:13.922Z,0
2017-06-14T22:02:38.339Z,0
2017-06-14T22:05:02.727Z,0
2017-06-14T22:07:27.117Z,0
2017-06-14T22:09:51.462Z,0
2017-06-14T22:12:07.406Z,0
2017-06-14T22:16:33.727Z,0
2017-06-14T22:18:49.650Z,0
2017-06-14T22:21:13.984Z,0
2017-06-14T22:23:38.279Z,0
2017-06-14T22:26:02.676Z,0
2017-06-14T22:28:18.601Z,0
2017-06-14T22:30:42.943Z,0
2017-06-14T22:33:07.227Z,0
2017-06-14T22:35:14.618Z,0
2017-06-14T22:37:38.924Z,0
2017-06-14T22:40:03.297Z,0
2017-06-14T22:42:27.578Z,0
2017-06-14T22:44:51.875Z,0
2017-06-14T22:49:09.108Z,0
2017-06-14T22:51:33.383Z,0
2017-06-14T22:53:40.838Z,0
2017-06-14T22:55:56.712Z,0
2017-06-14T22:58:21.061Z,0
2017-06-14T23:00:45.341Z,0
2017-06-14T23:03:09.621Z,0
2017-06-14T23:05:33.917Z,0
2017-06-14T23:07:58.202Z,0
2017-06-14T23:10:22.496Z,0
2017-06-14T23:12:46.785Z,0
2017-06-14T23:15:11.169Z,0
2017-06-14T23:19:28.451Z,0
2017-06-14T23:21:52.800Z,0
2017-06-14T23:24:17.181Z,0
2017-06-14T23:26:33.023Z,0
2017-06-14T23:28:57.359Z,0
2017-06-14T23:31:13.194Z,0
2017-06-14T23:33:37.539Z,0
2017-06-14T23:35:45.063Z,0
2017-06-14T23:38:09.429Z,0
2017-06-14T23:40:25.255Z,0
2017-06-14T23:42:41.137Z,0
2017-06-14T23:45:05.486Z,0
2017-06-14T23:47:29.756Z,0
2017-06-14T23:49:45.651Z,0
2017-06-14T23:52:09.943Z,0
2017-06-14T23:54:34.233Z,0
2017-06-14T23:56:58.508Z,0
